AirNav   Pilot Hours Calculator
 
 850 users online  

12CN Richter Airport
Maxwell, California, USA

GOING TO MAXWELL?


FAA INFORMATION EFFECTIVE 12 SEPTEMBER 2019

Location

FAA Identifier: 12CN
Lat/Long: 39-16-12.0000N 122-06-59.0000W
39-16.200000N 122-06.983333W
39.2700000,-122.1163889
(estimated)
Elevation: 57 ft. / 17 m (estimated)
From city: 4 miles E of MAXWELL, CA
Time zone: UTC -7 (UTC -8 during Standard Time)
Zip code: 95932

Airport Operations

Airport use: Private use. Permission required prior to landing
Activation date: 12/2012
Control tower: no
ARTCC: OAKLAND CENTER
FSS: RANCHO MURIETA FLIGHT SERVICE STATION
Attendance: 0800-1700
Wind indicator: yes
Segmented circle: no

Nearby radio navigation aids

VOR radial/distance  VOR name  Freq  Var
ILAr323/12.6WILLIAMS VORTAC114.4018E
MYVr276/27.3MARYSVILLE VOR/DME110.8016E
CICr186/33.6CHICO VOR/DME109.8016E

Airport Services

Runway Information

Runway 16/34

Dimensions: 2800 x 50 ft. / 853 x 15 m
Surface: gravel
RUNWAY 16  RUNWAY 34
Traffic pattern: leftleft
Obstructions: 20 ft. bldg, 300 ft. from runwaynone

Airport Ownership and Management from official FAA records

Ownership: Privately-owned
Owner: RICHARD & BRENDA RICHTER
PO BOX 612
MAXWELL, CA 95955
Phone 530-438-2593
Manager: RICHARD & BRENDA RICHTER
PO BOX 612
MAXWELL, CA 95955
Phone 530-438-2141

Airport Operational Statistics

Aircraft based on the field: 6
Single engine airplanes: 6
    

Additional Remarks

FOR CD CTC OAKLAND ARTCC AT 510-745-3380.

Instrument Procedures

There are no published instrument procedures at 12CN.

Some nearby airports with instrument procedures:

O08 - Colusa County Airport (8 nm SE)
KWLW - Willows-Glenn County Airport (15 nm N)
KOVE - Oroville Municipal Airport (26 nm NE)
O37 - Haigh Field Airport (27 nm N)
KMYV - Yuba County Airport (27 nm E)
 
Loc | Ops | Rwys | IFR | FBO | Links
Com | Nav | Svcs | Stats | Notes
Aerial photo
No photo
 
Airport distance calculator
Flying to Richter Airport? Find the distance to fly.

From to 12CN

Sunrise and sunset
Times for 15-Sep-2019
 Local
(UTC-7)
 Zulu
(UTC)
Morning civil twilight06:2413:24
Sunrise06:5113:51
Sunset19:1702:17
Evening civil twilight19:4302:43

Current date and time
Zulu (UTC)  16-Sep-2019 01:32:42
Local (UTC-7)  15-Sep-2019 18:32:42
 
METAR
KOVE 
27nm NE 
160053Z AUTO 17016KT 10SM CLR 30/05 A2971 RMK AO2 SLP062 T03000050
KMYV 
28nm E 
160053Z AUTO 15017G24KT 10SM CLR 28/12 A2971 RMK AO2 SLP064 T02780117
KBAB 
33nm E 
160058Z AUTO 18014KT 10SM CLR 29/09 A2970 RMK AO2 SLP060 T02890085 $
KCIC 
33nm NE 
160058Z 14014KT 25SM SCT100 BKN200 30/01 A2970
KLHM 
42nm SE 
160115Z AUTO 18011G16KT 10SM CLR 27/08 A2973 RMK AO1
KSMF 
42nm SE 
160053Z 19016KT 10SM SCT250 27/12 A2972 RMK AO2 SLP064 T02720117 $
KEDU 
47nm S 
160115Z AUTO 21012G18KT 10SM CLR 25/11 A2974 RMK AO1
KMCC 
49nm SE 
160120Z AUTO 19015KT 10SM CLR 27/10 A2976 RMK AO2
TAF
KBAB 
33nm E 
151909Z 1519/1701 17012KT 9999 SCT200 QNH2971INS TEMPO 1519/1601 15015G25KT BECMG 1608/1609 15012KT 9999 BKN010 OVC050 QNH2982INS TEMPO 1613/1617 BKN005 BECMG 1616/1617 15012KT 8000 -SHRA SCT010 BKN050 QNH2987INS TEMPO 1617/1622 17012G18KT BECMG 1622/1623 21009KT 9999 VCSH BKN050 QNH2986INS TX32/1523Z TN16/1613Z LAST NO AMDS AFT 1521 NEXT 1611
NOTAMs
Click for the latest NOTAMs
NOTAMs are issued by the DoD/FAA and will open in a separate window not controlled by AirNav.

 

 
 

Would you like to see your business listed on this page?

 If your business provides an interesting product or service to pilots, flight crews, aircraft, or users of the Richter Airport, you should consider listing it here.  To start the listing process, click on the button below
 
Add a business
 

Other Pages about Richter Airport

Update a link
 
Copyright © AirNav, LLC. All rights reserved. Privacy Policy  Contact